Midlothian, IL (60445)

14:54 CST le 23 novembre 2014 (GMT -0600)
151st & Central Ave. | Change Station
CLOSE
Current Station
Stations météorologiques personnelles
Location: Oak Forest, IL
Altitude: 645 ft
Stations météo à proximité

Alt. 645 ft 41.62 °N, 87.76 °W | Updated 10 seconds ago

Pluie
Pluie
49.6 ° F
Paraît 50 ° F
N
0.9
Vent Variable Vent de SE
Gusts 11.0 mph

Aujourd'hui
Haut(e) -- | Bas -- ° F
--% Risque de précip.
Hier
Haut(e) -- | Bas -- ° F
Precip. -- pouce
6:49 AM 4:24 PM
Nouvelle lune, 2% visible
Pression 29.50 pouce
Visibilité 7.0 Miles terrestres
Nuages Nuageux 1300 ft
Couvert 2100 ft
Refroidissement éolien 50 ° F
Point de rosée 46 ° F
Humidité 89%
Précipitations 0.04 pouce
Profondeur de la couche neigeuse Non disponible.
UV 0 sur 12
Pollen .10 sur 12
Qualité de l'air Non disponible.
Flu Activity Non disponible.
SPECI KMDW 232042Z 15008KT 7SM -RA BKN013 OVC021 11/09 A2950 RMK AO2 P0003 T01110094

More Conditions Fewer Conditions

Pression 29.50 pouce
Visibilité 7.0 Miles terrestres
Nuages Nuageux 1300 ft
Couvert 2100 ft
Refroidissement éolien 50 ° F
Point de rosée 46 ° F
Humidité 89%
Précipitations 0.04 pouce
Profondeur de la couche neigeuse Non disponible.
UV 0 sur 12
Pollen .10 sur 12
Qualité de l'air Non disponible.
Flu Activity Non disponible.
SPECI KMDW 232042Z 15008KT 7SM -RA BKN013 OVC021 11/09 A2950 RMK AO2 P0003 T01110094

More Conditions Fewer Conditions

10-Day Weather Forecast

Almanac

Astronomie

Nov. 23, 2014 Lever Coucher
Temps réel
Crépuscule civil
Crépuscule nautique
Crépuscule astronomique
Lune
Durée de lumière visible
Longueur du jour
Tomorrow will be .
, % of the Moon is Illuminated

Extrêmes aujourd'hui

State Highs State Lows

Community

WunderPhotos

Upload Photos

1,773,171 Photos téléchargées !

WunderBlogs® & News

Nearby

Qualité de l'air

  Qualité de l'air Indice de la qualité de l'air Polluant
Not available.

Épaisseur de neige

Station Depth Altitude

Activité sismique

Ville Distance Mag. Time & Date
Minimum magnitude displayed is 2.5.

Températures des eaux côtières

Lieu Température

Stations météo à proximité